Starks, Wisconsin
Current Conditions -  °F | °C
As of 12:53 PM on Friday 24 Oct 2014 (Local Time) from KRHI Reporting Station
Clear Clear  
Wind Chill: 52°   Ceiling: Unl
Heat Index: 52°   Visibility: 10mi
Dew Point: 46°   Wind: 7mph
Humidity: 80%   Direction: 190°S
Pressure: 29.92"   Gusts: NA
Location:  45.6521°N, 89.3386°W
Report Text: KRHI 241753Z AUTO 19006KT 10SM CLR 11/08 A2992 RMK AO2 SLP141 T01110078 10111 20056 58019
Loading
Personal Weather Stations






























Interactive Weather Map
Tropical Storm Tracking
New forecast layout! Learn more

10-Day Weather Forecast

Advertisements
Track Severe Weather on mobile